sensor_id;sensor_type;location;lat;lon;timestamp;P1;durP1;ratioP1;P2;durP2;ratioP2
38053;SDS011;23859;50.672;7.164;2022-07-10T00:00:13;17.48;;;2.30;;
38053;SDS011;23859;50.672;7.164;2022-07-10T00:02:40;4.32;;;1.70;;
38053;SDS011;23859;50.672;7.164;2022-07-10T00:05:07;5.35;;;1.30;;
38053;SDS011;23859;50.672;7.164;2022-07-10T00:07:35;5.35;;;1.40;;
38053;SDS011;23859;50.672;7.164;2022-07-10T00:10:01;3.55;;;1.45;;
38053;SDS011;23859;50.672;7.164;2022-07-10T00:12:28;5.50;;;1.30;;
38053;SDS011;23859;50.672;7.164;2022-07-10T00:14:54;4.53;;;1.50;;
38053;SDS011;23859;50.672;7.164;2022-07-10T00:17:20;4.60;;;1.52;;
38053;SDS011;23859;50.672;7.164;2022-07-10T00:19:46;2.80;;;0.95;;
38053;SDS011;23859;50.672;7.164;2022-07-10T00:22:12;5.10;;;1.40;;
38053;SDS011;23859;50.672;7.164;2022-07-10T00:24:38;5.32;;;1.75;;
38053;SDS011;23859;50.672;7.164;2022-07-10T00:27:04;7.65;;;2.33;;
38053;SDS011;23859;50.672;7.164;2022-07-10T00:29:30;7.80;;;1.80;;
38053;SDS011;23859;50.672;7.164;2022-07-10T00:31:56;2.97;;;1.20;;
38053;SDS011;23859;50.672;7.164;2022-07-10T00:34:22;6.22;;;1.63;;
38053;SDS011;23859;50.672;7.164;2022-07-10T00:36:49;4.05;;;1.30;;
38053;SDS011;23859;50.672;7.164;2022-07-10T00:39:15;4.85;;;1.20;;
38053;SDS011;23859;50.672;7.164;2022-07-10T00:41:41;4.70;;;1.52;;
38053;SDS011;23859;50.672;7.164;2022-07-10T00:44:07;8.48;;;1.50;;
38053;SDS011;23859;50.672;7.164;2022-07-10T00:46:33;6.80;;;1.50;;
38053;SDS011;23859;50.672;7.164;2022-07-10T00:49:00;10.63;;;1.40;;
38053;SDS011;23859;50.672;7.164;2022-07-10T00:51:27;4.95;;;1.55;;
38053;SDS011;23859;50.672;7.164;2022-07-10T00:53:54;6.25;;;1.17;;
38053;SDS011;23859;50.672;7.164;2022-07-10T00:56:25;5.28;;;1.33;;
38053;SDS011;23859;50.672;7.164;2022-07-10T00:58:52;4.28;;;2.00;;
38053;SDS011;23859;50.672;7.164;2022-07-10T01:01:19;5.80;;;1.60;;
38053;SDS011;23859;50.672;7.164;2022-07-10T01:03:47;8.38;;;1.80;;
38053;SDS011;23859;50.672;7.164;2022-07-10T01:06:14;7.63;;;2.65;;
38053;SDS011;23859;50.672;7.164;2022-07-10T01:08:41;4.68;;;2.03;;
38053;SDS011;23859;50.672;7.164;2022-07-10T01:11:10;6.85;;;1.90;;
38053;SDS011;23859;50.672;7.164;2022-07-10T01:13:38;6.97;;;1.77;;
38053;SDS011;23859;50.672;7.164;2022-07-10T01:16:05;4.28;;;1.60;;
38053;SDS011;23859;50.672;7.164;2022-07-10T01:18:31;3.90;;;1.90;;
38053;SDS011;23859;50.672;7.164;2022-07-10T01:20:57;9.50;;;1.88;;
38053;SDS011;23859;50.672;7.164;2022-07-10T01:23:23;5.38;;;2.15;;
38053;SDS011;23859;50.672;7.164;2022-07-10T01:25:49;8.40;;;1.80;;
38053;SDS011;23859;50.672;7.164;2022-07-10T01:28:16;5.00;;;1.75;;
38053;SDS011;23859;50.672;7.164;2022-07-10T01:30:43;3.70;;;1.50;;
38053;SDS011;23859;50.672;7.164;2022-07-10T01:33:09;4.50;;;1.42;;
38053;SDS011;23859;50.672;7.164;2022-07-10T01:35:35;5.60;;;1.50;;
38053;SDS011;23859;50.672;7.164;2022-07-10T01:38:01;7.82;;;2.70;;
38053;SDS011;23859;50.672;7.164;2022-07-10T01:40:27;6.60;;;1.88;;
38053;SDS011;23859;50.672;7.164;2022-07-10T01:42:53;4.63;;;1.85;;
38053;SDS011;23859;50.672;7.164;2022-07-10T01:45:19;7.57;;;1.85;;
38053;SDS011;23859;50.672;7.164;2022-07-10T01:47:45;6.80;;;1.92;;
38053;SDS011;23859;50.672;7.164;2022-07-10T01:50:11;9.50;;;1.80;;
38053;SDS011;23859;50.672;7.164;2022-07-10T01:52:37;5.38;;;2.22;;
38053;SDS011;23859;50.672;7.164;2022-07-10T01:55:04;3.05;;;1.80;;
38053;SDS011;23859;50.672;7.164;2022-07-10T01:57:31;5.68;;;2.40;;
38053;SDS011;23859;50.672;7.164;2022-07-10T01:59:57;10.32;;;2.30;;
38053;SDS011;23859;50.672;7.164;2022-07-10T02:02:23;7.43;;;2.30;;
38053;SDS011;23859;50.672;7.164;2022-07-10T02:04:49;5.35;;;1.98;;
38053;SDS011;23859;50.672;7.164;2022-07-10T02:07:16;5.65;;;2.65;;
38053;SDS011;23859;50.672;7.164;2022-07-10T02:09:43;3.90;;;1.95;;
38053;SDS011;23859;50.672;7.164;2022-07-10T02:12:11;4.43;;;2.20;;
38053;SDS011;23859;50.672;7.164;2022-07-10T02:14:38;4.57;;;2.13;;
38053;SDS011;23859;50.672;7.164;2022-07-10T02:17:05;5.38;;;2.50;;
38053;SDS011;23859;50.672;7.164;2022-07-10T02:19:32;9.40;;;2.47;;
38053;SDS011;23859;50.672;7.164;2022-07-10T02:21:59;10.40;;;2.53;;
38053;SDS011;23859;50.672;7.164;2022-07-10T02:24:25;7.70;;;2.13;;
38053;SDS011;23859;50.672;7.164;2022-07-10T02:26:51;4.88;;;1.90;;
38053;SDS011;23859;50.672;7.164;2022-07-10T02:29:20;11.35;;;2.85;;
38053;SDS011;23859;50.672;7.164;2022-07-10T02:31:48;7.75;;;2.53;;
38053;SDS011;23859;50.672;7.164;2022-07-10T02:34:14;5.53;;;2.00;;
38053;SDS011;23859;50.672;7.164;2022-07-10T02:36:40;5.28;;;1.77;;
38053;SDS011;23859;50.672;7.164;2022-07-10T02:39:07;11.07;;;2.45;;
38053;SDS011;23859;50.672;7.164;2022-07-10T02:41:33;4.60;;;1.80;;
38053;SDS011;23859;50.672;7.164;2022-07-10T02:44:00;6.75;;;2.30;;
38053;SDS011;23859;50.672;7.164;2022-07-10T02:46:27;5.45;;;1.92;;
38053;SDS011;23859;50.672;7.164;2022-07-10T02:48:53;9.07;;;2.50;;
38053;SDS011;23859;50.672;7.164;2022-07-10T02:51:19;6.57;;;2.00;;
38053;SDS011;23859;50.672;7.164;2022-07-10T02:53:45;5.18;;;2.70;;
38053;SDS011;23859;50.672;7.164;2022-07-10T02:56:11;5.93;;;2.35;;
38053;SDS011;23859;50.672;7.164;2022-07-10T02:58:37;6.30;;;2.10;;
38053;SDS011;23859;50.672;7.164;2022-07-10T03:01:04;5.35;;;1.92;;
38053;SDS011;23859;50.672;7.164;2022-07-10T03:03:30;3.40;;;1.75;;
38053;SDS011;23859;50.672;7.164;2022-07-10T03:05:56;4.50;;;1.88;;
38053;SDS011;23859;50.672;7.164;2022-07-10T03:08:23;5.20;;;1.80;;
38053;SDS011;23859;50.672;7.164;2022-07-10T03:10:49;4.40;;;1.80;;
38053;SDS011;23859;50.672;7.164;2022-07-10T03:13:15;7.65;;;1.90;;
38053;SDS011;23859;50.672;7.164;2022-07-10T03:15:42;6.97;;;2.17;;
38053;SDS011;23859;50.672;7.164;2022-07-10T03:18:08;5.60;;;2.03;;
38053;SDS011;23859;50.672;7.164;2022-07-10T03:20:34;6.22;;;2.15;;
38053;SDS011;23859;50.672;7.164;2022-07-10T03:23:00;7.10;;;1.65;;
38053;SDS011;23859;50.672;7.164;2022-07-10T03:25:26;5.25;;;2.00;;
38053;SDS011;23859;50.672;7.164;2022-07-10T03:27:52;5.00;;;1.75;;
38053;SDS011;23859;50.672;7.164;2022-07-10T03:30:18;4.75;;;1.90;;
38053;SDS011;23859;50.672;7.164;2022-07-10T03:32:45;8.52;;;1.73;;
38053;SDS011;23859;50.672;7.164;2022-07-10T03:35:11;4.40;;;1.88;;
38053;SDS011;23859;50.672;7.164;2022-07-10T03:37:37;7.25;;;2.05;;
38053;SDS011;23859;50.672;7.164;2022-07-10T03:40:03;5.05;;;1.88;;
38053;SDS011;23859;50.672;7.164;2022-07-10T03:42:30;6.75;;;2.22;;
38053;SDS011;23859;50.672;7.164;2022-07-10T03:44:56;3.33;;;1.80;;
38053;SDS011;23859;50.672;7.164;2022-07-10T03:47:22;6.18;;;1.90;;
38053;SDS011;23859;50.672;7.164;2022-07-10T03:49:48;8.10;;;2.20;;
38053;SDS011;23859;50.672;7.164;2022-07-10T03:52:14;4.55;;;1.70;;
38053;SDS011;23859;50.672;7.164;2022-07-10T03:54:41;10.23;;;2.05;;
38053;SDS011;23859;50.672;7.164;2022-07-10T03:57:07;8.18;;;2.30;;
38053;SDS011;23859;50.672;7.164;2022-07-10T03:59:51;7.00;;;2.00;;
38053;SDS011;23859;50.672;7.164;2022-07-10T04:02:17;11.98;;;2.10;;
38053;SDS011;23859;50.672;7.164;2022-07-10T04:04:43;6.00;;;1.70;;
38053;SDS011;23859;50.672;7.164;2022-07-10T04:07:09;6.90;;;1.80;;
38053;SDS011;23859;50.672;7.164;2022-07-10T04:09:37;12.80;;;2.10;;
38053;SDS011;23859;50.672;7.164;2022-07-10T04:12:04;7.13;;;2.05;;
38053;SDS011;23859;50.672;7.164;2022-07-10T04:14:30;8.65;;;1.90;;
38053;SDS011;23859;50.672;7.164;2022-07-10T04:16:56;10.05;;;2.58;;
38053;SDS011;23859;50.672;7.164;2022-07-10T04:19:22;5.82;;;1.90;;
38053;SDS011;23859;50.672;7.164;2022-07-10T04:21:48;8.57;;;1.73;;
38053;SDS011;23859;50.672;7.164;2022-07-10T04:24:14;7.10;;;1.70;;
38053;SDS011;23859;50.672;7.164;2022-07-10T04:26:40;5.85;;;2.00;;
38053;SDS011;23859;50.672;7.164;2022-07-10T04:29:07;4.30;;;1.50;;
38053;SDS011;23859;50.672;7.164;2022-07-10T04:31:33;6.95;;;1.70;;
38053;SDS011;23859;50.672;7.164;2022-07-10T04:33:59;6.07;;;2.05;;
38053;SDS011;23859;50.672;7.164;2022-07-10T04:36:25;10.23;;;2.38;;
38053;SDS011;23859;50.672;7.164;2022-07-10T04:38:51;9.60;;;1.80;;
38053;SDS011;23859;50.672;7.164;2022-07-10T04:41:17;7.45;;;1.70;;
38053;SDS011;23859;50.672;7.164;2022-07-10T04:43:44;7.55;;;1.80;;
38053;SDS011;23859;50.672;7.164;2022-07-10T04:46:10;4.18;;;1.77;;
38053;SDS011;23859;50.672;7.164;2022-07-10T04:48:36;6.95;;;2.00;;
38053;SDS011;23859;50.672;7.164;2022-07-10T04:51:02;9.82;;;2.17;;
38053;SDS011;23859;50.672;7.164;2022-07-10T04:53:28;5.32;;;1.90;;
38053;SDS011;23859;50.672;7.164;2022-07-10T04:55:54;5.65;;;1.50;;
38053;SDS011;23859;50.672;7.164;2022-07-10T04:58:20;5.82;;;1.70;;
38053;SDS011;23859;50.672;7.164;2022-07-10T05:00:46;8.90;;;1.92;;
38053;SDS011;23859;50.672;7.164;2022-07-10T05:03:12;8.38;;;2.03;;
38053;SDS011;23859;50.672;7.164;2022-07-10T05:05:40;6.32;;;1.70;;
38053;SDS011;23859;50.672;7.164;2022-07-10T05:08:06;5.35;;;1.70;;
38053;SDS011;23859;50.672;7.164;2022-07-10T05:10:32;6.03;;;2.28;;
38053;SDS011;23859;50.672;7.164;2022-07-10T05:12:58;5.00;;;1.40;;
38053;SDS011;23859;50.672;7.164;2022-07-10T05:15:24;6.57;;;1.58;;
38053;SDS011;23859;50.672;7.164;2022-07-10T05:17:50;9.35;;;1.77;;
38053;SDS011;23859;50.672;7.164;2022-07-10T05:20:16;9.65;;;1.63;;
38053;SDS011;23859;50.672;7.164;2022-07-10T05:22:43;7.20;;;2.22;;
38053;SDS011;23859;50.672;7.164;2022-07-10T05:25:09;5.57;;;2.22;;
38053;SDS011;23859;50.672;7.164;2022-07-10T05:27:35;5.60;;;1.92;;
38053;SDS011;23859;50.672;7.164;2022-07-10T05:30:01;4.90;;;1.80;;
38053;SDS011;23859;50.672;7.164;2022-07-10T05:32:27;5.40;;;1.50;;
38053;SDS011;23859;50.672;7.164;2022-07-10T05:34:53;7.40;;;2.20;;
38053;SDS011;23859;50.672;7.164;2022-07-10T05:37:19;7.68;;;2.05;;
38053;SDS011;23859;50.672;7.164;2022-07-10T05:39:45;5.35;;;2.38;;
38053;SDS011;23859;50.672;7.164;2022-07-10T05:42:11;2.72;;;1.17;;
38053;SDS011;23859;50.672;7.164;2022-07-10T05:44:37;11.35;;;1.92;;
38053;SDS011;23859;50.672;7.164;2022-07-10T05:47:03;6.45;;;1.58;;
38053;SDS011;23859;50.672;7.164;2022-07-10T05:49:30;5.88;;;1.75;;
38053;SDS011;23859;50.672;7.164;2022-07-10T05:51:57;13.27;;;2.08;;
38053;SDS011;23859;50.672;7.164;2022-07-10T05:54:23;6.20;;;1.75;;
38053;SDS011;23859;50.672;7.164;2022-07-10T05:56:49;7.30;;;1.70;;
38053;SDS011;23859;50.672;7.164;2022-07-10T05:59:16;4.97;;;2.47;;
38053;SDS011;23859;50.672;7.164;2022-07-10T06:01:42;6.53;;;2.20;;
38053;SDS011;23859;50.672;7.164;2022-07-10T06:04:08;6.03;;;1.52;;
38053;SDS011;23859;50.672;7.164;2022-07-10T06:06:34;7.78;;;1.45;;
38053;SDS011;23859;50.672;7.164;2022-07-10T06:09:00;6.47;;;1.77;;
38053;SDS011;23859;50.672;7.164;2022-07-10T06:11:26;10.57;;;2.45;;
38053;SDS011;23859;50.672;7.164;2022-07-10T06:13:52;8.52;;;2.40;;
38053;SDS011;23859;50.672;7.164;2022-07-10T06:16:18;4.85;;;1.95;;
38053;SDS011;23859;50.672;7.164;2022-07-10T06:18:44;7.80;;;2.42;;
38053;SDS011;23859;50.672;7.164;2022-07-10T06:21:10;6.95;;;2.10;;
38053;SDS011;23859;50.672;7.164;2022-07-10T06:23:36;8.10;;;1.90;;
38053;SDS011;23859;50.672;7.164;2022-07-10T06:26:02;3.63;;;1.50;;
38053;SDS011;23859;50.672;7.164;2022-07-10T06:28:28;5.95;;;1.35;;
38053;SDS011;23859;50.672;7.164;2022-07-10T06:30:54;6.93;;;1.70;;
38053;SDS011;23859;50.672;7.164;2022-07-10T06:33:20;5.80;;;1.50;;
38053;SDS011;23859;50.672;7.164;2022-07-10T06:35:46;9.40;;;1.70;;
38053;SDS011;23859;50.672;7.164;2022-07-10T06:38:12;4.00;;;1.40;;
38053;SDS011;23859;50.672;7.164;2022-07-10T06:40:38;8.65;;;1.52;;
38053;SDS011;23859;50.672;7.164;2022-07-10T06:43:06;6.25;;;1.67;;
38053;SDS011;23859;50.672;7.164;2022-07-10T06:45:32;11.48;;;2.08;;
38053;SDS011;23859;50.672;7.164;2022-07-10T06:47:58;3.83;;;1.88;;
38053;SDS011;23859;50.672;7.164;2022-07-10T06:50:25;6.32;;;1.98;;
38053;SDS011;23859;50.672;7.164;2022-07-10T06:52:55;9.68;;;1.58;;
38053;SDS011;23859;50.672;7.164;2022-07-10T06:55:22;7.35;;;2.05;;
38053;SDS011;23859;50.672;7.164;2022-07-10T06:57:49;5.13;;;1.75;;
38053;SDS011;23859;50.672;7.164;2022-07-10T07:00:15;14.63;;;2.00;;
38053;SDS011;23859;50.672;7.164;2022-07-10T07:02:41;9.73;;;1.70;;
38053;SDS011;23859;50.672;7.164;2022-07-10T07:05:08;8.90;;;1.70;;
38053;SDS011;23859;50.672;7.164;2022-07-10T07:07:34;6.35;;;1.85;;
38053;SDS011;23859;50.672;7.164;2022-07-10T07:10:00;6.55;;;1.83;;
38053;SDS011;23859;50.672;7.164;2022-07-10T07:12:28;7.20;;;1.63;;
38053;SDS011;23859;50.672;7.164;2022-07-10T07:14:54;6.70;;;2.30;;
38053;SDS011;23859;50.672;7.164;2022-07-10T07:17:20;4.30;;;1.83;;
38053;SDS011;23859;50.672;7.164;2022-07-10T07:19:47;5.80;;;1.70;;
38053;SDS011;23859;50.672;7.164;2022-07-10T07:22:32;2.75;;;1.73;;
38053;SDS011;23859;50.672;7.164;2022-07-10T07:25:17;3.95;;;2.17;;
38053;SDS011;23859;50.672;7.164;2022-07-10T07:27:43;9.07;;;2.50;;
38053;SDS011;23859;50.672;7.164;2022-07-10T07:30:10;6.55;;;1.92;;
38053;SDS011;23859;50.672;7.164;2022-07-10T07:32:41;3.47;;;2.03;;
38053;SDS011;23859;50.672;7.164;2022-07-10T07:35:09;6.15;;;3.03;;
38053;SDS011;23859;50.672;7.164;2022-07-10T07:37:37;4.35;;;2.47;;
38053;SDS011;23859;50.672;7.164;2022-07-10T07:40:04;7.53;;;3.08;;
38053;SDS011;23859;50.672;7.164;2022-07-10T07:42:32;4.93;;;2.17;;
38053;SDS011;23859;50.672;7.164;2022-07-10T07:44:58;7.53;;;2.40;;
38053;SDS011;23859;50.672;7.164;2022-07-10T07:47:24;6.60;;;2.60;;
38053;SDS011;23859;50.672;7.164;2022-07-10T07:49:50;5.22;;;2.50;;
38053;SDS011;23859;50.672;7.164;2022-07-10T07:52:17;3.78;;;1.85;;
38053;SDS011;23859;50.672;7.164;2022-07-10T07:54:43;4.80;;;1.85;;
38053;SDS011;23859;50.672;7.164;2022-07-10T07:57:10;6.78;;;2.00;;
38053;SDS011;23859;50.672;7.164;2022-07-10T07:59:36;4.20;;;1.90;;
38053;SDS011;23859;50.672;7.164;2022-07-10T08:02:02;7.80;;;2.00;;
38053;SDS011;23859;50.672;7.164;2022-07-10T08:04:28;6.53;;;2.03;;
38053;SDS011;23859;50.672;7.164;2022-07-10T08:06:54;6.70;;;1.88;;
38053;SDS011;23859;50.672;7.164;2022-07-10T08:09:20;7.28;;;2.13;;
38053;SDS011;23859;50.672;7.164;2022-07-10T08:11:47;6.30;;;1.95;;
38053;SDS011;23859;50.672;7.164;2022-07-10T08:14:13;5.13;;;1.70;;
38053;SDS011;23859;50.672;7.164;2022-07-10T08:16:39;7.13;;;2.08;;
38053;SDS011;23859;50.672;7.164;2022-07-10T08:19:05;6.20;;;1.90;;
38053;SDS011;23859;50.672;7.164;2022-07-10T08:21:32;2.45;;;1.52;;
38053;SDS011;23859;50.672;7.164;2022-07-10T08:23:59;5.80;;;1.92;;
38053;SDS011;23859;50.672;7.164;2022-07-10T08:26:25;3.17;;;1.75;;
38053;SDS011;23859;50.672;7.164;2022-07-10T08:28:51;6.40;;;2.17;;
38053;SDS011;23859;50.672;7.164;2022-07-10T08:31:17;4.13;;;1.52;;
38053;SDS011;23859;50.672;7.164;2022-07-10T08:33:43;7.30;;;1.65;;
38053;SDS011;23859;50.672;7.164;2022-07-10T08:36:09;5.70;;;1.50;;
38053;SDS011;23859;50.672;7.164;2022-07-10T08:38:35;4.45;;;1.38;;
38053;SDS011;23859;50.672;7.164;2022-07-10T08:41:02;6.95;;;1.60;;
38053;SDS011;23859;50.672;7.164;2022-07-10T08:43:31;5.38;;;2.28;;
38053;SDS011;23859;50.672;7.164;2022-07-10T08:45:57;5.13;;;2.42;;
38053;SDS011;23859;50.672;7.164;2022-07-10T08:48:24;6.20;;;1.85;;
38053;SDS011;23859;50.672;7.164;2022-07-10T08:50:54;5.93;;;1.60;;
38053;SDS011;23859;50.672;7.164;2022-07-10T08:53:29;3.93;;;1.87;;
38053;SDS011;23859;50.672;7.164;2022-07-10T08:55:57;6.32;;;2.35;;
38053;SDS011;23859;50.672;7.164;2022-07-10T08:58:24;4.15;;;1.65;;
38053;SDS011;23859;50.672;7.164;2022-07-10T09:00:52;7.75;;;2.45;;
38053;SDS011;23859;50.672;7.164;2022-07-10T09:03:18;3.05;;;1.25;;
38053;SDS011;23859;50.672;7.164;2022-07-10T09:05:44;5.88;;;2.00;;
38053;SDS011;23859;50.672;7.164;2022-07-10T09:08:24;6.93;;;2.15;;
38053;SDS011;23859;50.672;7.164;2022-07-10T09:10:53;4.22;;;1.80;;
38053;SDS011;23859;50.672;7.164;2022-07-10T09:13:54;4.80;;;1.88;;
38053;SDS011;23859;50.672;7.164;2022-07-10T09:16:31;10.23;;;2.13;;
38053;SDS011;23859;50.672;7.164;2022-07-10T09:21:45;3.17;;;1.98;;
38053;SDS011;23859;50.672;7.164;2022-07-10T09:24:12;9.82;;;2.45;;
38053;SDS011;23859;50.672;7.164;2022-07-10T09:26:39;6.55;;;2.10;;
38053;SDS011;23859;50.672;7.164;2022-07-10T09:29:11;8.27;;;2.47;;
38053;SDS011;23859;50.672;7.164;2022-07-10T09:31:50;5.35;;;2.10;;
38053;SDS011;23859;50.672;7.164;2022-07-10T09:37:22;5.57;;;2.80;;
38053;SDS011;23859;50.672;7.164;2022-07-10T09:42:28;6.32;;;2.50;;
38053;SDS011;23859;50.672;7.164;2022-07-10T09:50:19;2.92;;;2.08;;
38053;SDS011;23859;50.672;7.164;2022-07-10T09:52:55;8.95;;;3.53;;
38053;SDS011;23859;50.672;7.164;2022-07-10T09:55:23;6.43;;;2.95;;
38053;SDS011;23859;50.672;7.164;2022-07-10T09:58:06;6.25;;;3.10;;
38053;SDS011;23859;50.672;7.164;2022-07-10T10:03:07;6.35;;;3.47;;
38053;SDS011;23859;50.672;7.164;2022-07-10T10:08:04;5.60;;;2.97;;
38053;SDS011;23859;50.672;7.164;2022-07-10T10:10:50;5.47;;;2.80;;
38053;SDS011;23859;50.672;7.164;2022-07-10T10:13:18;5.38;;;2.97;;
38053;SDS011;23859;50.672;7.164;2022-07-10T10:15:46;4.75;;;2.65;;
38053;SDS011;23859;50.672;7.164;2022-07-10T10:18:15;4.72;;;3.13;;
38053;SDS011;23859;50.672;7.164;2022-07-10T10:20:46;6.35;;;3.25;;
38053;SDS011;23859;50.672;7.164;2022-07-10T10:23:14;7.55;;;3.67;;
38053;SDS011;23859;50.672;7.164;2022-07-10T10:25:48;6.03;;;2.95;;
38053;SDS011;23859;50.672;7.164;2022-07-10T10:28:16;7.10;;;3.47;;
38053;SDS011;23859;50.672;7.164;2022-07-10T10:30:48;4.82;;;3.10;;
38053;SDS011;23859;50.672;7.164;2022-07-10T10:35:58;5.88;;;2.90;;
38053;SDS011;23859;50.672;7.164;2022-07-10T10:38:24;5.32;;;3.17;;
38053;SDS011;23859;50.672;7.164;2022-07-10T10:41:25;6.65;;;3.40;;
38053;SDS011;23859;50.672;7.164;2022-07-10T10:46:37;6.22;;;3.90;;
38053;SDS011;23859;50.672;7.164;2022-07-10T10:49:21;4.75;;;3.60;;
38053;SDS011;23859;50.672;7.164;2022-07-10T10:52:11;7.15;;;3.90;;
38053;SDS011;23859;50.672;7.164;2022-07-10T10:57:21;6.85;;;3.78;;
38053;SDS011;23859;50.672;7.164;2022-07-10T10:59:56;6.80;;;3.88;;
38053;SDS011;23859;50.672;7.164;2022-07-10T11:02:25;7.50;;;4.20;;
38053;SDS011;23859;50.672;7.164;2022-07-10T11:07:52;7.22;;;4.25;;
38053;SDS011;23859;50.672;7.164;2022-07-10T11:10:28;7.25;;;3.83;;
38053;SDS011;23859;50.672;7.164;2022-07-10T11:13:06;6.32;;;3.90;;
38053;SDS011;23859;50.672;7.164;2022-07-10T11:15:46;8.82;;;4.15;;
38053;SDS011;23859;50.672;7.164;2022-07-10T11:18:17;5.65;;;3.60;;
38053;SDS011;23859;50.672;7.164;2022-07-10T11:20:48;7.25;;;3.47;;
38053;SDS011;23859;50.672;7.164;2022-07-10T11:25:48;8.05;;;3.53;;
38053;SDS011;23859;50.672;7.164;2022-07-10T11:28:25;5.70;;;2.42;;
38053;SDS011;23859;50.672;7.164;2022-07-10T11:31:02;8.20;;;3.45;;
38053;SDS011;23859;50.672;7.164;2022-07-10T11:33:29;6.45;;;1.80;;
38053;SDS011;23859;50.672;7.164;2022-07-10T11:36:18;5.80;;;1.90;;
38053;SDS011;23859;50.672;7.164;2022-07-10T11:38:58;6.82;;;2.20;;
38053;SDS011;23859;50.672;7.164;2022-07-10T11:41:25;4.63;;;2.40;;
38053;SDS011;23859;50.672;7.164;2022-07-10T11:43:52;6.90;;;2.90;;
38053;SDS011;23859;50.672;7.164;2022-07-10T11:46:23;4.38;;;2.95;;
38053;SDS011;23859;50.672;7.164;2022-07-10T11:48:51;7.72;;;2.75;;
38053;SDS011;23859;50.672;7.164;2022-07-10T11:51:19;3.45;;;2.67;;
38053;SDS011;23859;50.672;7.164;2022-07-10T11:56:20;3.63;;;2.20;;
38053;SDS011;23859;50.672;7.164;2022-07-10T11:59:02;5.05;;;2.05;;
38053;SDS011;23859;50.672;7.164;2022-07-10T12:01:30;3.35;;;2.00;;
38053;SDS011;23859;50.672;7.164;2022-07-10T12:04:01;3.45;;;1.70;;
38053;SDS011;23859;50.672;7.164;2022-07-10T12:06:30;5.72;;;1.98;;
38053;SDS011;23859;50.672;7.164;2022-07-10T12:09:07;5.10;;;1.95;;
38053;SDS011;23859;50.672;7.164;2022-07-10T12:11:35;3.20;;;1.73;;
38053;SDS011;23859;50.672;7.164;2022-07-10T12:16:42;4.60;;;1.58;;
38053;SDS011;23859;50.672;7.164;2022-07-10T12:19:09;8.90;;;2.42;;
38053;SDS011;23859;50.672;7.164;2022-07-10T12:21:38;6.03;;;1.70;;
38053;SDS011;23859;50.672;7.164;2022-07-10T12:24:04;4.53;;;2.33;;
38053;SDS011;23859;50.672;7.164;2022-07-10T12:26:35;8.10;;;2.60;;
38053;SDS011;23859;50.672;7.164;2022-07-10T12:29:03;5.20;;;2.70;;
38053;SDS011;23859;50.672;7.164;2022-07-10T12:31:31;9.98;;;2.20;;
38053;SDS011;23859;50.672;7.164;2022-07-10T12:33:59;7.07;;;2.55;;
38053;SDS011;23859;50.672;7.164;2022-07-10T12:39:10;5.20;;;3.13;;
38053;SDS011;23859;50.672;7.164;2022-07-10T12:44:42;4.65;;;2.85;;
38053;SDS011;23859;50.672;7.164;2022-07-10T12:47:13;4.95;;;2.88;;
38053;SDS011;23859;50.672;7.164;2022-07-10T12:52:35;9.73;;;3.67;;
38053;SDS011;23859;50.672;7.164;2022-07-10T12:55:09;5.80;;;2.90;;
38053;SDS011;23859;50.672;7.164;2022-07-10T12:57:59;7.13;;;3.05;;
38053;SDS011;23859;50.672;7.164;2022-07-10T13:00:42;5.13;;;2.78;;
38053;SDS011;23859;50.672;7.164;2022-07-10T13:03:20;6.68;;;3.35;;
38053;SDS011;23859;50.672;7.164;2022-07-10T13:05:48;10.85;;;3.40;;
38053;SDS011;23859;50.672;7.164;2022-07-10T13:10:47;6.25;;;3.33;;
38053;SDS011;23859;50.672;7.164;2022-07-10T13:13:15;6.18;;;3.00;;
38053;SDS011;23859;50.672;7.164;2022-07-10T13:15:42;6.60;;;2.78;;
38053;SDS011;23859;50.672;7.164;2022-07-10T13:18:15;3.92;;;2.28;;
38053;SDS011;23859;50.672;7.164;2022-07-10T13:20:43;4.78;;;2.33;;
38053;SDS011;23859;50.672;7.164;2022-07-10T13:23:10;4.78;;;2.75;;
38053;SDS011;23859;50.672;7.164;2022-07-10T13:25:36;6.43;;;2.50;;
38053;SDS011;23859;50.672;7.164;2022-07-10T13:28:04;5.30;;;2.50;;
38053;SDS011;23859;50.672;7.164;2022-07-10T13:30:30;5.20;;;2.38;;
38053;SDS011;23859;50.672;7.164;2022-07-10T13:32:56;4.15;;;2.72;;
38053;SDS011;23859;50.672;7.164;2022-07-10T13:35:22;4.65;;;3.08;;
38053;SDS011;23859;50.672;7.164;2022-07-10T13:37:49;4.28;;;3.03;;
38053;SDS011;23859;50.672;7.164;2022-07-10T13:40:15;11.13;;;4.28;;
38053;SDS011;23859;50.672;7.164;2022-07-10T13:42:41;8.32;;;4.75;;
38053;SDS011;23859;50.672;7.164;2022-07-10T13:45:07;7.18;;;4.22;;
38053;SDS011;23859;50.672;7.164;2022-07-10T13:47:34;12.48;;;5.20;;
38053;SDS011;23859;50.672;7.164;2022-07-10T13:50:01;8.80;;;4.75;;
38053;SDS011;23859;50.672;7.164;2022-07-10T13:52:27;8.15;;;4.75;;
38053;SDS011;23859;50.672;7.164;2022-07-10T13:54:53;8.02;;;5.03;;
38053;SDS011;23859;50.672;7.164;2022-07-10T13:57:19;10.20;;;5.13;;
38053;SDS011;23859;50.672;7.164;2022-07-10T13:59:46;16.92;;;6.90;;
38053;SDS011;23859;50.672;7.164;2022-07-10T14:02:12;10.82;;;7.65;;
38053;SDS011;23859;50.672;7.164;2022-07-10T14:04:38;10.73;;;6.95;;
38053;SDS011;23859;50.672;7.164;2022-07-10T14:07:04;8.73;;;5.85;;
38053;SDS011;23859;50.672;7.164;2022-07-10T14:09:30;12.18;;;7.10;;
38053;SDS011;23859;50.672;7.164;2022-07-10T14:11:56;11.68;;;5.95;;
38053;SDS011;23859;50.672;7.164;2022-07-10T14:14:22;8.50;;;6.30;;
38053;SDS011;23859;50.672;7.164;2022-07-10T14:16:48;8.63;;;6.72;;
38053;SDS011;23859;50.672;7.164;2022-07-10T14:19:16;10.65;;;6.90;;
38053;SDS011;23859;50.672;7.164;2022-07-10T14:21:42;9.05;;;6.45;;
38053;SDS011;23859;50.672;7.164;2022-07-10T14:24:08;12.20;;;7.10;;
38053;SDS011;23859;50.672;7.164;2022-07-10T14:26:35;7.82;;;5.15;;
38053;SDS011;23859;50.672;7.164;2022-07-10T14:29:02;20.73;;;6.45;;
38053;SDS011;23859;50.672;7.164;2022-07-10T14:31:29;8.50;;;5.90;;
38053;SDS011;23859;50.672;7.164;2022-07-10T14:33:56;8.50;;;5.80;;
38053;SDS011;23859;50.672;7.164;2022-07-10T14:36:22;7.53;;;5.45;;
38053;SDS011;23859;50.672;7.164;2022-07-10T14:38:51;11.50;;;5.30;;
38053;SDS011;23859;50.672;7.164;2022-07-10T14:41:22;14.13;;;6.10;;
38053;SDS011;23859;50.672;7.164;2022-07-10T14:43:49;9.25;;;5.20;;
38053;SDS011;23859;50.672;7.164;2022-07-10T14:46:15;8.60;;;6.18;;
38053;SDS011;23859;50.672;7.164;2022-07-10T14:48:42;10.43;;;5.65;;
38053;SDS011;23859;50.672;7.164;2022-07-10T14:51:08;6.82;;;5.18;;
38053;SDS011;23859;50.672;7.164;2022-07-10T14:53:35;12.05;;;5.95;;
38053;SDS011;23859;50.672;7.164;2022-07-10T14:56:01;7.22;;;4.80;;
38053;SDS011;23859;50.672;7.164;2022-07-10T14:58:28;10.48;;;4.30;;
38053;SDS011;23859;50.672;7.164;2022-07-10T15:00:54;8.38;;;4.35;;
38053;SDS011;23859;50.672;7.164;2022-07-10T15:03:20;7.63;;;4.30;;
38053;SDS011;23859;50.672;7.164;2022-07-10T15:05:46;8.07;;;4.40;;
38053;SDS011;23859;50.672;7.164;2022-07-10T15:08:16;6.80;;;3.95;;
38053;SDS011;23859;50.672;7.164;2022-07-10T15:10:45;7.47;;;3.63;;
38053;SDS011;23859;50.672;7.164;2022-07-10T15:13:12;9.63;;;3.28;;
38053;SDS011;23859;50.672;7.164;2022-07-10T15:15:39;5.70;;;3.05;;
38053;SDS011;23859;50.672;7.164;2022-07-10T15:18:05;5.97;;;3.17;;
38053;SDS011;23859;50.672;7.164;2022-07-10T15:20:32;7.88;;;3.40;;
38053;SDS011;23859;50.672;7.164;2022-07-10T15:22:58;7.50;;;3.28;;
38053;SDS011;23859;50.672;7.164;2022-07-10T15:25:24;4.10;;;3.30;;
38053;SDS011;23859;50.672;7.164;2022-07-10T15:27:50;4.28;;;2.78;;
38053;SDS011;23859;50.672;7.164;2022-07-10T15:30:17;6.28;;;3.05;;
38053;SDS011;23859;50.672;7.164;2022-07-10T15:32:43;5.88;;;4.05;;
38053;SDS011;23859;50.672;7.164;2022-07-10T15:35:11;7.45;;;4.22;;
38053;SDS011;23859;50.672;7.164;2022-07-10T15:37:38;4.57;;;2.88;;